createdAt,value
2022-08-22T07:12:54.125Z,20.00
2022-08-22T07:14:03.568Z,20.18
2022-08-22T07:15:21.367Z,20.27
2022-08-22T07:16:31.025Z,20.58
2022-08-22T07:17:32.750Z,20.59
2022-08-22T07:18:34.692Z,20.47
2022-08-22T07:37:56.341Z,23.35
2022-08-22T07:39:11.327Z,23.37
2022-08-22T07:40:23.613Z,23.39
2022-08-22T07:41:36.638Z,23.67
2022-08-22T07:43:04.825Z,24.03
2022-08-22T07:44:17.713Z,24.12
2022-08-22T07:58:44.537Z,24.25
2022-08-22T07:59:50.109Z,23.95
2022-08-22T08:00:52.341Z,24.27
2022-08-22T08:01:58.542Z,24.52
2022-08-22T08:03:08.868Z,24.98
2022-08-22T08:04:15.486Z,25.30
2022-08-22T08:05:18.688Z,25.36
2022-08-22T08:06:23.322Z,25.59
2022-08-22T08:07:27.583Z,25.87
2022-08-22T08:08:41.830Z,25.47
2022-08-22T08:23:23.578Z,26.24
2022-08-22T08:24:31.594Z,26.45
2022-08-22T08:26:06.869Z,26.46
2022-08-22T08:27:32.876Z,26.50
2022-08-22T08:28:41.508Z,26.29
2022-08-22T08:29:54.359Z,26.32
2022-08-22T08:30:59.891Z,25.74
2022-08-22T08:32:02.035Z,25.29
2022-08-22T08:33:24.816Z,25.59
2022-08-22T08:47:26.038Z,25.78
2022-08-22T08:48:47.986Z,26.57
2022-08-22T08:50:07.517Z,27.08
2022-08-22T08:52:00.843Z,27.06
2022-08-22T08:53:14.482Z,25.72
2022-08-22T08:54:47.283Z,26.76
2022-08-22T08:56:06.968Z,27.16
2022-08-22T08:57:15.319Z,27.58
2022-08-22T08:58:56.320Z,26.93
2022-08-22T09:00:21.750Z,26.66
2022-08-22T09:15:23.697Z,28.86
2022-08-22T09:16:46.296Z,28.93
2022-08-22T09:18:24.275Z,28.65
2022-08-22T09:19:46.109Z,28.70
2022-08-22T09:21:06.471Z,29.02
2022-08-22T09:22:19.553Z,27.54
2022-08-22T09:23:48.931Z,26.78
2022-08-22T09:25:38.682Z,26.51
2022-08-22T09:26:57.140Z,26.93
2022-08-22T09:28:28.358Z,27.89
2022-08-22T09:29:55.229Z,28.48
2022-08-22T09:31:21.828Z,28.80
2022-08-22T09:32:50.308Z,28.83
2022-08-22T09:33:58.067Z,28.27
2022-08-22T09:35:15.312Z,27.70
2022-08-22T09:50:22.610Z,29.76
2022-08-22T09:51:39.731Z,29.72
2022-08-22T09:53:23.196Z,30.14
2022-08-22T09:54:40.996Z,30.62
2022-08-22T09:56:00.497Z,31.07
2022-08-22T09:57:19.120Z,30.69
2022-08-22T09:58:41.758Z,31.10
2022-08-22T10:00:02.109Z,31.35
2022-08-22T10:01:24.609Z,31.48
2022-08-22T10:02:50.385Z,31.29
2022-08-22T10:04:06.822Z,31.75
2022-08-22T10:05:40.614Z,31.57
2022-08-22T10:07:25.156Z,31.85
2022-08-22T10:08:49.431Z,32.20
2022-08-22T10:10:03.870Z,31.63
2022-08-22T10:11:19.635Z,30.71
2022-08-22T10:12:35.132Z,30.20
2022-08-22T10:14:03.062Z,31.11
2022-08-22T10:15:26.077Z,31.19
2022-08-22T10:16:56.605Z,31.71
2022-08-22T10:18:06.788Z,31.82
2022-08-22T10:19:27.173Z,30.85
2022-08-22T10:20:49.754Z,31.37
2022-08-22T10:22:21.912Z,31.98
2022-08-22T10:23:30.101Z,32.06
2022-08-22T10:24:54.405Z,32.28
2022-08-22T10:26:29.450Z,31.69
2022-08-22T10:27:40.376Z,32.53
2022-08-22T10:28:56.271Z,32.85
2022-08-22T10:30:10.781Z,32.79
2022-08-22T10:31:51.082Z,32.89
2022-08-22T10:33:30.861Z,31.34
2022-08-22T10:34:45.576Z,31.43
2022-08-22T10:36:27.662Z,30.45
2022-08-22T10:37:36.601Z,28.70
2022-08-22T10:38:52.245Z,29.88
2022-08-22T10:40:01.168Z,30.72
2022-08-22T10:41:37.488Z,31.06
2022-08-22T10:42:51.482Z,32.40
2022-08-22T10:44:17.343Z,31.44
2022-08-22T10:45:23.962Z,32.65
2022-08-22T10:46:42.162Z,30.49
2022-08-22T10:48:22.123Z,31.84
2022-08-22T10:49:51.243Z,31.64
2022-08-22T10:51:39.509Z,32.27
2022-08-22T10:53:28.929Z,30.41
2022-08-22T10:55:00.900Z,32.31
2022-08-22T10:56:21.553Z,31.33
2022-08-22T10:57:41.868Z,28.52
2022-08-22T10:59:16.227Z,29.00
2022-08-22T11:00:55.231Z,28.57
2022-08-22T11:02:34.525Z,29.97
2022-08-22T11:03:54.224Z,30.05
2022-08-22T11:05:14.568Z,31.75
2022-08-22T11:06:19.170Z,32.64
2022-08-22T11:07:42.046Z,33.21
2022-08-22T11:09:13.658Z,31.26
2022-08-22T11:10:44.769Z,32.02
2022-08-22T11:11:56.023Z,32.86
2022-08-22T11:13:06.839Z,33.43
2022-08-22T11:14:40.520Z,32.82
2022-08-22T11:16:09.239Z,34.07
2022-08-22T11:17:31.171Z,34.46
2022-08-22T11:18:58.084Z,34.49
2022-08-22T11:20:31.843Z,34.49
2022-08-22T11:22:11.792Z,34.49
2022-08-22T11:23:40.639Z,31.27
2022-08-22T11:25:04.437Z,29.56
2022-08-22T11:26:46.848Z,30.44
2022-08-22T11:28:10.707Z,29.83
2022-08-22T11:29:14.304Z,30.02
2022-08-22T11:30:20.986Z,28.57
2022-08-22T11:31:51.292Z,28.95
2022-08-22T11:33:00.116Z,29.58
2022-08-22T11:34:14.473Z,30.73
2022-08-22T11:35:31.765Z,32.29
2022-08-22T11:36:39.406Z,32.72
2022-08-22T11:37:51.273Z,33.71
2022-08-22T11:39:19.284Z,31.98
2022-08-22T11:40:42.477Z,31.61
2022-08-22T11:41:52.951Z,33.17
2022-08-22T11:43:32.369Z,33.94
2022-08-22T11:44:55.205Z,34.22
2022-08-22T11:46:00.185Z,33.14
2022-08-22T11:47:08.018Z,33.70
2022-08-22T11:48:23.465Z,34.46
2022-08-22T11:49:33.835Z,34.62
2022-08-22T11:51:17.319Z,34.08
2022-08-22T11:52:51.776Z,34.80
2022-08-22T11:54:38.493Z,32.49
2022-08-22T11:56:08.188Z,32.51
2022-08-22T11:57:17.972Z,32.69
2022-08-22T11:58:22.638Z,34.36
2022-08-22T11:59:53.610Z,34.99
2022-08-22T12:00:56.879Z,32.94
2022-08-22T12:02:04.417Z,32.38
2022-08-22T12:03:19.678Z,32.44
2022-08-22T12:04:45.749Z,31.61
2022-08-22T12:06:06.616Z,34.23
2022-08-22T12:07:17.723Z,34.09
2022-08-22T12:08:30.996Z,33.87
2022-08-22T12:09:55.057Z,32.64
2022-08-22T12:11:19.502Z,33.79
2022-08-22T12:12:29.580Z,33.28
2022-08-22T12:14:04.678Z,33.05
2022-08-22T12:15:39.148Z,31.92
2022-08-22T12:16:51.774Z,31.68
2022-08-22T12:18:21.533Z,31.51
2022-08-22T12:19:32.757Z,31.25
2022-08-22T12:20:49.394Z,30.97
2022-08-22T12:22:04.875Z,30.84
2022-08-22T12:23:30.364Z,30.85
2022-08-22T12:25:03.235Z,30.76
2022-08-22T12:26:16.944Z,31.07
2022-08-22T12:27:36.543Z,30.74
2022-08-22T12:28:50.853Z,30.30
2022-08-22T12:30:13.713Z,31.50
2022-08-22T12:31:37.611Z,32.87
2022-08-22T12:33:10.706Z,33.02
2022-08-22T12:34:52.598Z,33.39
2022-08-22T12:36:21.884Z,33.31
2022-08-22T12:38:28.307Z,32.89
2022-08-22T12:39:54.830Z,34.09
2022-08-22T12:41:28.132Z,34.27
2022-08-22T12:42:48.915Z,34.97
2022-08-22T12:44:00.358Z,35.34
2022-08-22T12:45:27.243Z,35.19
2022-08-22T12:46:48.242Z,34.19
2022-08-22T12:48:07.880Z,35.37
2022-08-22T12:49:21.238Z,34.20
2022-08-22T12:50:37.762Z,34.45
2022-08-22T12:52:01.008Z,35.23
2022-08-22T12:53:24.706Z,35.29
2022-08-22T12:54:56.118Z,36.17
2022-08-22T12:56:42.247Z,36.23
2022-08-22T12:57:50.424Z,35.45
2022-08-22T12:59:17.827Z,35.15
2022-08-22T13:00:30.189Z,35.96
2022-08-22T13:01:43.442Z,36.54
2022-08-22T13:02:45.773Z,36.79
2022-08-22T13:03:50.903Z,34.08
2022-08-22T13:04:56.837Z,34.06
2022-08-22T13:06:25.297Z,32.63
2022-08-22T13:07:34.941Z,34.49
2022-08-22T13:08:41.532Z,35.40
2022-08-22T13:09:49.287Z,34.97
2022-08-22T13:11:01.509Z,32.75
2022-08-22T13:12:26.102Z,31.31
2022-08-22T13:13:41.526Z,31.75
2022-08-22T13:14:46.060Z,33.22
2022-08-22T13:15:56.099Z,34.14
2022-08-22T13:17:15.255Z,32.96
2022-08-22T13:18:33.995Z,31.82
2022-08-22T13:19:49.748Z,29.54
2022-08-22T13:20:56.572Z,29.95
2022-08-22T13:22:07.492Z,31.40
2022-08-22T13:23:39.630Z,31.24
2022-08-22T13:24:58.183Z,31.36
2022-08-22T13:26:33.737Z,32.99
2022-08-22T13:27:50.921Z,31.62
2022-08-22T13:29:39.522Z,30.99
2022-08-22T13:30:43.773Z,33.53
2022-08-22T13:31:53.192Z,34.78
2022-08-22T13:33:12.898Z,35.21
2022-08-22T13:34:35.780Z,35.59
2022-08-22T13:35:54.047Z,36.41
2022-08-22T13:37:01.132Z,36.27
2022-08-22T13:38:12.201Z,34.73
2022-08-22T13:39:14.584Z,32.64
2022-08-22T13:40:29.368Z,31.67
2022-08-22T13:41:36.432Z,31.30
2022-08-22T13:42:50.570Z,30.57
2022-08-22T13:44:04.856Z,31.12
2022-08-22T13:45:21.177Z,30.98
2022-08-22T13:46:28.260Z,30.26
2022-08-22T13:47:34.802Z,31.72
2022-08-22T13:48:50.326Z,33.49
2022-08-22T13:50:12.370Z,32.75
2022-08-22T13:51:28.460Z,32.73
2022-08-22T13:52:52.506Z,31.41
2022-08-22T13:54:12.152Z,32.39
2022-08-22T13:55:20.890Z,30.98
2022-08-22T13:56:28.160Z,32.38
2022-08-22T13:57:45.692Z,33.00
2022-08-22T13:58:58.762Z,32.74
2022-08-22T14:00:28.566Z,33.43
2022-08-22T14:01:37.920Z,33.13
2022-08-22T14:03:00.517Z,32.43
2022-08-22T14:04:28.749Z,31.88
2022-08-22T14:05:38.405Z,32.06
2022-08-22T14:07:16.527Z,32.39
2022-08-22T14:08:32.964Z,30.48
2022-08-22T14:09:57.221Z,31.64
2022-08-22T14:11:10.342Z,32.51
2022-08-22T14:12:33.507Z,31.80
2022-08-22T14:14:03.113Z,33.01
2022-08-22T14:15:08.109Z,33.15
2022-08-22T14:16:23.249Z,32.18
2022-08-22T14:17:31.358Z,32.32
2022-08-22T14:18:46.175Z,30.80
2022-08-22T14:19:59.101Z,30.15
2022-08-22T14:21:19.977Z,30.60
2022-08-22T14:22:31.872Z,31.71
2022-08-22T14:23:37.525Z,32.58
2022-08-22T14:24:45.366Z,33.32
2022-08-22T14:25:47.928Z,32.16
2022-08-22T14:27:05.299Z,32.70
2022-08-22T14:28:20.548Z,33.56
2022-08-22T14:29:25.035Z,31.33
2022-08-22T14:30:32.419Z,30.84
2022-08-22T14:31:34.827Z,32.34
2022-08-22T14:32:44.564Z,33.07
2022-08-22T14:33:55.172Z,33.39
2022-08-22T14:35:10.785Z,33.15
2022-08-22T14:36:37.387Z,33.25
2022-08-22T14:37:42.592Z,34.23
2022-08-22T14:38:50.669Z,34.75
2022-08-22T14:40:00.137Z,35.15
2022-08-22T14:41:06.825Z,35.38
2022-08-22T14:42:29.277Z,35.34
2022-08-22T14:43:33.476Z,35.80
2022-08-22T14:44:58.465Z,35.84
2022-08-22T14:46:06.324Z,35.89
2022-08-22T14:47:55.173Z,36.45
2022-08-22T14:49:13.848Z,35.96
2022-08-22T14:50:54.285Z,36.35
2022-08-22T14:52:19.319Z,36.34
2022-08-22T14:53:26.822Z,36.43
2022-08-22T14:54:31.161Z,36.33
2022-08-22T14:55:33.195Z,36.43
2022-08-22T14:56:37.442Z,34.74
2022-08-22T14:57:48.522Z,34.07
2022-08-22T14:58:53.455Z,33.25
2022-08-22T14:59:54.947Z,32.52
2022-08-22T15:00:57.700Z,31.47
2022-08-22T15:02:07.955Z,30.21
2022-08-22T15:03:22.932Z,29.23
2022-08-22T15:04:40.153Z,30.19
2022-08-22T15:06:05.084Z,30.67
2022-08-22T15:07:08.717Z,31.81
2022-08-22T15:08:12.793Z,32.15
2022-08-22T15:09:35.165Z,30.19
2022-08-22T15:10:41.869Z,30.35
2022-08-22T15:11:47.816Z,32.10
2022-08-22T15:12:56.013Z,33.34
2022-08-22T15:14:23.563Z,32.99
2022-08-22T15:15:49.432Z,31.94
2022-08-22T15:17:01.789Z,32.43
2022-08-22T15:18:19.921Z,32.34
2022-08-22T15:19:35.685Z,30.91
2022-08-22T15:20:45.441Z,30.46
2022-08-22T15:21:51.987Z,29.80
2022-08-22T15:22:56.351Z,30.59
2022-08-22T15:24:04.124Z,31.65
2022-08-22T15:25:21.093Z,31.08
2022-08-22T15:26:31.060Z,29.94
2022-08-22T15:27:36.122Z,30.02
2022-08-22T15:28:52.553Z,30.55
2022-08-22T15:29:58.739Z,30.94
2022-08-22T15:31:14.655Z,29.73
2022-08-22T15:32:22.531Z,30.94
2022-08-22T15:33:27.603Z,31.80
2022-08-22T15:34:41.876Z,32.13
2022-08-22T15:35:45.252Z,32.73
2022-08-22T15:37:17.584Z,32.20
2022-08-22T15:38:36.329Z,32.11
2022-08-22T15:40:18.209Z,31.93
2022-08-22T15:41:37.210Z,31.65
2022-08-22T15:42:51.008Z,31.56
2022-08-22T15:44:02.420Z,31.16
2022-08-22T15:45:07.557Z,31.19
2022-08-22T15:46:28.221Z,30.99
2022-08-22T15:47:41.224Z,30.87
2022-08-22T15:48:53.278Z,30.82
2022-08-22T15:49:59.421Z,30.59
2022-08-22T15:51:10.267Z,30.49
2022-08-22T15:52:33.001Z,30.54
2022-08-22T15:53:43.553Z,30.35
2022-08-22T15:54:54.381Z,30.16
2022-08-22T15:56:16.654Z,30.06
2022-08-22T15:57:35.355Z,29.84
2022-08-22T15:58:40.193Z,29.38
2022-08-22T15:59:54.373Z,29.42
2022-08-22T16:01:18.944Z,29.26
2022-08-22T16:02:24.614Z,29.08
2022-08-22T16:03:31.814Z,29.29
2022-08-22T16:04:47.269Z,29.41
2022-08-22T16:05:55.695Z,29.55
2022-08-22T16:07:01.142Z,29.77
2022-08-22T16:08:14.396Z,29.22
2022-08-22T16:09:44.523Z,29.27
2022-08-22T16:11:13.728Z,29.51
2022-08-22T16:12:46.193Z,29.07
2022-08-22T16:13:48.224Z,29.25
2022-08-22T16:14:51.389Z,28.02
2022-08-22T16:16:01.272Z,27.82
2022-08-22T16:17:25.674Z,27.78
2022-08-22T16:18:33.222Z,27.70
2022-08-22T16:19:35.516Z,27.29
2022-08-22T16:20:36.834Z,27.57
2022-08-22T16:21:38.244Z,27.28
2022-08-22T16:22:57.923Z,27.68
2022-08-22T16:24:00.723Z,27.82
2022-08-22T16:25:05.024Z,28.02
2022-08-22T16:26:09.430Z,28.07
2022-08-22T16:27:21.067Z,28.11
2022-08-22T16:28:56.866Z,28.16
2022-08-22T16:30:07.153Z,28.18
2022-08-22T16:31:20.594Z,28.23
2022-08-22T16:32:27.601Z,28.33
2022-08-22T16:33:28.965Z,28.70
2022-08-22T16:34:33.387Z,28.93
2022-08-22T16:36:12.514Z,28.87
2022-08-22T16:37:21.455Z,29.07
2022-08-22T16:38:36.706Z,29.32
2022-08-22T16:40:22.676Z,29.57
2022-08-22T16:41:29.937Z,28.91
2022-08-22T16:43:09.718Z,28.37
2022-08-22T16:44:29.428Z,28.01
2022-08-22T16:45:37.711Z,27.91
2022-08-22T16:46:43.477Z,28.34
2022-08-22T16:47:52.672Z,28.61
2022-08-22T16:49:09.701Z,29.17
2022-08-22T16:50:23.611Z,29.44
2022-08-22T16:51:25.047Z,29.35
2022-08-22T16:52:26.427Z,29.18
2022-08-22T16:53:27.777Z,29.43
2022-08-22T16:54:47.094Z,29.76
2022-08-22T16:55:56.145Z,29.74
2022-08-22T16:57:05.489Z,29.84
2022-08-22T16:58:56.546Z,29.96
2022-08-22T17:00:04.928Z,29.99
2022-08-22T17:01:32.077Z,29.84
2022-08-22T17:03:13.397Z,29.00
2022-08-22T17:04:28.335Z,28.66
2022-08-22T17:05:56.003Z,28.10
2022-08-22T17:07:31.247Z,27.91
2022-08-22T17:08:53.790Z,27.76
2022-08-22T17:10:12.507Z,27.83
2022-08-22T17:11:41.512Z,27.46
2022-08-22T17:13:14.440Z,27.37
2022-08-22T17:14:22.144Z,27.07
2022-08-22T17:15:29.252Z,27.10
2022-08-22T17:16:56.063Z,26.96
2022-08-22T17:18:21.553Z,27.15
